Addy, WA (99101)

2:49 PM PDT on July 24, 2016 (GMT -0700)
Orin-Rice & South Basin | | Change Station

Elev 3179 ft 48.47 °N, 118.03 °W | Updated 7 minutes ago

Clear
Clear
81.9 °F
Feels Like 81 °F
N
1.7
Wind Variable Wind from ESE

Today
High -- | Low -- °F
--% Chance of Precip.
Yesterday
High -- | Low -- °F
Precip. -- in
Pressure 30.06 in
Visibility 10.0 miles
Clouds Clear
Heat Index 81 °F
Dew Point 53 °F
Humidity 37%
Rainfall 0.00 in
Snow Depth Not available.
5:17 AM 8:38 PM
Waning Gibbous, 73% visible
METAR KDEW 242053Z AUTO 00000KT 10SM CLR 27/06 A3008 RMK AO2 SLP177 T02720056 58015
Pressure 30.06 in
Visibility 10.0 miles
Clouds Clear
Heat Index 81 °F
Dew Point 53 °F
Humidity 37%
Rainfall 0.00 in
Snow Depth Not available.
5:17 AM 8:38 PM
Waning Gibbous, 73% visible
METAR KDEW 242053Z AUTO 00000KT 10SM CLR 27/06 A3008 RMK AO2 SLP177 T02720056 58015

10-Day Weather Forecast

Almanac

Astronomy

Jul. 24, 2016 Rise Set
Actual Time
Civil Twilight
Nautical Twilight
Astronomical Twilight
Moon
Length of Visible Light
Length of Day
Tomorrow will be .
, % of the Moon is Illuminated

Today's Extremes

State Highs State Lows

Community

WunderPhotos

Upload Photos

1,927,195 photos uploaded!

WunderBlog® & News

Nearby

Air Quality

  Air Quality AQ Index Pollutant
Not available.

Snow Depth

Station Depth Elevation

Earthquake Activity

City Distance Mag. Time & Date
Minimum magnitude displayed is 2.5.

Coastal Water Temperatures

Place Temperature

Stations

Nearby Weather Stations

Station Location Temp. Windchill Dew Point Humidity Wind Precip. Elev Updated Type
                   

Watches & Warnings

There are currently no watches in effect.